Sandakan, Malaysia
Current Conditions -  °F | °C
As of 6:00 AM on Sunday 26 Oct 2014 (Local Time) from WBKS Reporting Station
Broken Clouds Broken Clouds  
Wind Chill: 77°   Ceiling: 27000
Heat Index: 78°   Visibility: 6mi
Dew Point: 75°   Wind: 6mph
Humidity: 94%   Direction: 270°W
Pressure: 29.83"   Gusts: NA
Location:  5.85°N, 118.11°E
Report Text: WBKS 252200Z 27005KT 9999 FEW016 SCT130 BKN270 25/24 Q1010 RETSRA
Loading
Personal Weather Stations






























Interactive Weather Map
Tropical Storm Tracking
New forecast layout! Learn more

10-Day Weather Forecast

Advertisements
Track Severe Weather on mobile